Time;durP1;ratioP1;P1;durP2;ratioP2;P2;SDS_P1;SDS_P2;PMS_P1;PMS_P2;Temp;Humidity;BMP_temperature;BMP_pressure;BME280_temperature;BME280_humidity;BME280_pressure;Samples;Min_cycle;Max_cycle;Signal;HPM_P1;HPM_P2
2023/12/09 00:00:56;;;;;;;43.70;11.03;;;;;;;;;;5017240;28;20189;-67
2023/12/09 00:03:21;;;;;;;31.93;9.37;;;;;;;;;;5016470;28;20175;-66
2023/12/09 00:05:46;;;;;;;27.70;8.70;;;;;;;;;;5008223;28;20213;-66
2023/12/09 00:08:11;;;;;;;27.23;9.43;;;;;;;;;;5012643;28;20716;-66
2023/12/09 00:10:37;;;;;;;28.63;8.33;;;;;;;;;;5016035;28;20218;-66
2023/12/09 00:13:02;;;;;;;28.57;9.30;;;;;;;;;;5011077;28;20222;-67
2023/12/09 00:15:28;;;;;;;38.63;9.27;;;;;;;;;;5014817;28;20205;-66
2023/12/09 00:17:53;;;;;;;30.90;9.23;;;;;;;;;;5002704;28;20690;-67
2023/12/09 00:20:18;;;;;;;42.13;11.33;;;;;;;;;;5004057;28;20266;-67
2023/12/09 00:22:43;;;;;;;37.90;9.73;;;;;;;;;;5008637;28;20178;-67
2023/12/09 00:25:08;;;;;;;30.67;11.00;;;;;;;;;;5013639;28;20175;-67
2023/12/09 00:27:34;;;;;;;27.07;9.10;;;;;;;;;;5008384;28;20233;-66
2023/12/09 00:29:59;;;;;;;30.90;9.60;;;;;;;;;;5005637;28;20710;-67
2023/12/09 00:32:24;;;;;;;37.07;10.00;;;;;;;;;;5009981;28;20221;-67
2023/12/09 00:34:50;;;;;;;33.13;9.70;;;;;;;;;;5013038;28;20175;-67
2023/12/09 00:37:15;;;;;;;22.90;9.30;;;;;;;;;;5014242;28;20260;-66
2023/12/09 00:39:41;;;;;;;24.77;8.63;;;;;;;;;;5017331;28;20248;-67
2023/12/09 00:42:06;;;;;;;30.00;9.17;;;;;;;;;;5009623;28;20298;-66
2023/12/09 00:44:31;;;;;;;33.30;9.90;;;;;;;;;;5001496;28;20207;-67
2023/12/09 00:46:56;;;;;;;30.17;8.60;;;;;;;;;;5011286;28;20183;-67
2023/12/09 00:49:22;;;;;;;27.03;9.03;;;;;;;;;;5009555;28;20667;-67
2023/12/09 00:51:47;;;;;;;24.87;9.00;;;;;;;;;;5011130;28;20225;-67
2023/12/09 00:54:12;;;;;;;25.00;9.43;;;;;;;;;;5015729;28;20203;-66
2023/12/09 00:56:37;;;;;;;25.30;8.63;;;;;;;;;;5013260;28;20182;-67
2023/12/09 00:59:02;;;;;;;24.37;7.90;;;;;;;;;;5008697;28;20202;-66
2023/12/09 01:01:28;;;;;;;19.33;8.47;;;;;;;;;;5010038;28;20740;-67
2023/12/09 01:03:53;;;;;;;39.17;10.60;;;;;;;;;;5010731;28;20533;-67
2023/12/09 01:06:18;;;;;;;22.30;9.10;;;;;;;;;;5003351;28;20179;-67
2023/12/09 01:08:43;;;;;;;30.57;9.57;;;;;;;;;;5012518;28;20289;-66
2023/12/09 01:11:09;;;;;;;22.57;8.30;;;;;;;;;;5015215;28;20179;-67
2023/12/09 01:13:34;;;;;;;24.33;7.33;;;;;;;;;;5020250;28;20198;-67
2023/12/09 01:15:59;;;;;;;27.53;9.00;;;;;;;;;;5010920;28;20198;-67
2023/12/09 01:18:24;;;;;;;36.57;8.83;;;;;;;;;;5012289;28;20194;-66
2023/12/09 01:20:50;;;;;;;34.53;8.10;;;;;;;;;;5010818;28;20190;-66
2023/12/09 01:23:15;;;;;;;30.13;8.63;;;;;;;;;;5018141;28;20416;-67
2023/12/09 01:25:40;;;;;;;24.07;7.47;;;;;;;;;;5003203;28;20670;-67
2023/12/09 01:28:06;;;;;;;21.97;9.03;;;;;;;;;;5010459;28;20678;-67
2023/12/09 01:30:31;;;;;;;28.07;8.27;;;;;;;;;;5012999;28;20645;-67
2023/12/09 01:32:56;;;;;;;28.70;8.50;;;;;;;;;;5013864;28;20195;-68
2023/12/09 01:35:22;;;;;;;23.47;8.37;;;;;;;;;;5019221;28;20225;-66
2023/12/09 01:37:47;;;;;;;25.07;7.70;;;;;;;;;;5009385;28;20198;-67
2023/12/09 01:40:15;;;;;;;26.63;7.23;;;;;;;;;;5012697;28;20258;-67
2023/12/09 01:42:42;;;;;;;37.13;8.00;;;;;;;;;;5011521;28;20194;-67
2023/12/09 01:45:07;;;;;;;32.30;8.13;;;;;;;;;;5009095;28;20206;-66
2023/12/09 01:47:32;;;;;;;28.60;8.83;;;;;;;;;;5012276;28;20269;-67
2023/12/09 01:49:58;;;;;;;24.57;7.87;;;;;;;;;;5017652;28;20258;-66
2023/12/09 01:52:23;;;;;;;23.13;7.33;;;;;;;;;;5010582;28;20278;-67
2023/12/09 01:54:48;;;;;;;31.13;7.87;;;;;;;;;;5010450;28;20179;-67
2023/12/09 01:57:14;;;;;;;31.03;9.83;;;;;;;;;;5008723;28;20269;-67
2023/12/09 01:59:39;;;;;;;18.47;7.73;;;;;;;;;;5017368;28;20712;-67
2023/12/09 02:02:04;;;;;;;23.87;9.97;;;;;;;;;;5005621;28;20179;-66
2023/12/09 02:04:29;;;;;;;16.90;6.90;;;;;;;;;;5007732;28;20186;-67
2023/12/09 02:06:55;;;;;;;28.70;7.70;;;;;;;;;;5017369;28;20183;-67
2023/12/09 02:11:54;;;;;;;27.13;7.53;;;;;;;;;;4998925;28;20306;-66
2023/12/09 02:14:21;;;;;;;25.10;6.67;;;;;;;;;;4992778;28;20204;-64
2023/12/09 02:16:49;;;;;;;25.43;7.87;;;;;;;;;;4992205;28;20186;-64
2023/12/09 02:19:16;;;;;;;25.07;7.47;;;;;;;;;;5002548;28;20196;-66
2023/12/09 02:21:57;;;;;;;27.47;7.83;;;;;;;;;;5009917;28;20770;-64
2023/12/09 02:24:22;;;;;;;25.83;7.83;;;;;;;;;;5010700;28;20179;-66
2023/12/09 02:26:48;;;;;;;21.33;7.33;;;;;;;;;;5011762;28;20237;-64
2023/12/09 02:29:14;;;;;;;34.20;7.80;;;;;;;;;;5012921;28;20238;-65
2023/12/09 02:31:39;;;;;;;29.07;8.63;;;;;;;;;;5012924;28;20175;-65
2023/12/09 02:34:05;;;;;;;22.83;7.20;;;;;;;;;;5011094;28;20265;-65
2023/12/09 02:36:31;;;;;;;23.50;8.70;;;;;;;;;;5011956;28;20587;-66
2023/12/09 02:38:57;;;;;;;26.13;8.23;;;;;;;;;;5005862;28;20194;-64
2023/12/09 02:41:22;;;;;;;25.67;8.70;;;;;;;;;;5006517;28;20573;-64
2023/12/09 02:43:47;;;;;;;22.83;8.57;;;;;;;;;;5013294;28;20175;-65
2023/12/09 02:46:13;;;;;;;28.03;8.20;;;;;;;;;;5010804;28;20190;-65
2023/12/09 02:48:39;;;;;;;23.53;7.77;;;;;;;;;;5012957;28;20198;-64
2023/12/09 02:51:04;;;;;;;21.40;7.33;;;;;;;;;;5012460;28;20186;-65
2023/12/09 02:53:29;;;;;;;23.00;6.10;;;;;;;;;;5012320;28;20272;-65
2023/12/09 02:55:54;;;;;;;23.53;7.20;;;;;;;;;;5007892;28;20203;-65
2023/12/09 02:58:20;;;;;;;31.33;6.97;;;;;;;;;;5007150;28;20256;-64
2023/12/09 03:00:45;;;;;;;25.97;8.07;;;;;;;;;;5010342;28;20176;-65
2023/12/09 03:03:10;;;;;;;19.40;7.57;;;;;;;;;;5002754;28;20175;-64
2023/12/09 03:05:35;;;;;;;24.27;7.60;;;;;;;;;;5008372;28;20183;-65
2023/12/09 03:08:00;;;;;;;17.97;7.97;;;;;;;;;;5010729;28;20203;-63
2023/12/09 03:10:26;;;;;;;23.40;7.57;;;;;;;;;;5006470;28;20195;-65
2023/12/09 03:12:51;;;;;;;22.00;7.30;;;;;;;;;;5010309;28;20450;-65
2023/12/09 03:15:16;;;;;;;26.17;7.63;;;;;;;;;;5009352;28;20179;-65
2023/12/09 03:17:42;;;;;;;20.73;6.47;;;;;;;;;;5012049;28;20250;-65
2023/12/09 03:20:08;;;;;;;23.97;7.80;;;;;;;;;;5003888;28;20173;-65
2023/12/09 03:22:34;;;;;;;24.63;7.87;;;;;;;;;;5007975;28;20187;-66
2023/12/09 03:24:59;;;;;;;22.47;8.37;;;;;;;;;;5008117;28;20236;-64
2023/12/09 03:27:24;;;;;;;24.07;7.33;;;;;;;;;;5011275;28;20183;-65
2023/12/09 03:29:49;;;;;;;25.67;8.87;;;;;;;;;;5011448;28;20202;-65
2023/12/09 03:32:14;;;;;;;30.67;8.03;;;;;;;;;;5011835;28;20175;-65
2023/12/09 03:34:40;;;;;;;26.73;8.33;;;;;;;;;;5010564;28;20624;-65
2023/12/09 03:37:05;;;;;;;33.10;8.50;;;;;;;;;;5011321;28;20186;-65
2023/12/09 03:39:30;;;;;;;25.73;7.97;;;;;;;;;;5003988;28;20191;-65
2023/12/09 03:41:55;;;;;;;31.20;8.00;;;;;;;;;;5008465;28;20274;-65
2023/12/09 03:44:20;;;;;;;37.23;9.00;;;;;;;;;;5008314;28;20232;-64
2023/12/09 03:46:46;;;;;;;28.37;8.70;;;;;;;;;;5010601;28;20175;-65
2023/12/09 03:49:11;;;;;;;28.97;8.80;;;;;;;;;;5010824;28;20336;-65
2023/12/09 03:51:36;;;;;;;25.37;8.17;;;;;;;;;;5011513;28;20179;-64
2023/12/09 03:54:01;;;;;;;32.80;9.93;;;;;;;;;;5011167;28;20207;-65
2023/12/09 03:56:26;;;;;;;26.47;9.03;;;;;;;;;;5007685;28;20175;-64
2023/12/09 03:58:53;;;;;;;28.97;9.90;;;;;;;;;;5005436;28;20589;-66
2023/12/09 04:01:18;;;;;;;27.87;7.90;;;;;;;;;;5009144;28;20194;-65
2023/12/09 04:03:43;;;;;;;28.87;7.63;;;;;;;;;;5000148;28;20245;-65
2023/12/09 04:06:09;;;;;;;34.80;8.77;;;;;;;;;;5007959;28;20613;-65
2023/12/09 04:08:34;;;;;;;22.83;8.20;;;;;;;;;;5011332;28;20282;-65
2023/12/09 04:10:59;;;;;;;27.83;9.10;;;;;;;;;;5011930;28;20191;-65
2023/12/09 04:13:24;;;;;;;23.77;8.57;;;;;;;;;;5011451;28;20211;-64
2023/12/09 04:15:49;;;;;;;26.87;8.90;;;;;;;;;;5009815;28;20214;-64
2023/12/09 04:18:15;;;;;;;33.27;9.53;;;;;;;;;;5011125;28;20400;-64
2023/12/09 04:20:40;;;;;;;26.80;8.67;;;;;;;;;;5003588;28;20179;-63
2023/12/09 04:23:05;;;;;;;29.20;8.20;;;;;;;;;;5007373;28;20194;-65
2023/12/09 04:25:30;;;;;;;24.93;7.83;;;;;;;;;;5009669;28;20662;-63
2023/12/09 04:27:56;;;;;;;32.13;10.83;;;;;;;;;;5014856;28;20630;-63
2023/12/09 04:30:24;;;;;;;28.47;8.87;;;;;;;;;;5009908;28;20327;-64
2023/12/09 04:32:49;;;;;;;31.17;9.70;;;;;;;;;;5011408;28;20207;-65
2023/12/09 04:35:15;;;;;;;29.20;9.73;;;;;;;;;;5010783;28;20668;-63
2023/12/09 04:37:40;;;;;;;30.47;10.07;;;;;;;;;;5009825;28;20186;-64
2023/12/09 04:40:12;;;;;;;27.27;8.90;;;;;;;;;;5005303;28;20186;-64
2023/12/09 04:42:37;;;;;;;29.70;9.57;;;;;;;;;;5007221;28;20841;-64
2023/12/09 04:45:03;;;;;;;31.00;9.80;;;;;;;;;;5006862;28;20182;-64
2023/12/09 04:47:29;;;;;;;28.30;9.10;;;;;;;;;;5006442;28;20252;-64
2023/12/09 04:49:54;;;;;;;24.33;8.33;;;;;;;;;;5007936;28;20646;-65
2023/12/09 04:52:19;;;;;;;26.80;7.87;;;;;;;;;;5006913;28;20536;-64
2023/12/09 04:54:44;;;;;;;29.17;8.57;;;;;;;;;;5009921;28;20189;-65
2023/12/09 04:57:10;;;;;;;23.73;8.17;;;;;;;;;;5003505;28;20256;-64
2023/12/09 04:59:35;;;;;;;20.70;8.70;;;;;;;;;;5004752;28;20195;-63
2023/12/09 05:02:00;;;;;;;26.23;10.27;;;;;;;;;;5007645;28;20171;-64
2023/12/09 05:04:25;;;;;;;29.57;10.07;;;;;;;;;;5002555;28;20179;-65
2023/12/09 05:06:50;;;;;;;31.77;8.40;;;;;;;;;;5005594;28;20174;-64
2023/12/09 05:09:16;;;;;;;33.87;10.10;;;;;;;;;;5009963;28;20281;-65
2023/12/09 05:11:41;;;;;;;24.87;7.73;;;;;;;;;;5009067;28;20197;-66
2023/12/09 05:14:06;;;;;;;29.33;7.83;;;;;;;;;;5009897;28;20199;-66
2023/12/09 05:16:32;;;;;;;30.60;8.30;;;;;;;;;;5005010;28;20183;-64
2023/12/09 05:18:57;;;;;;;22.13;8.20;;;;;;;;;;5007805;28;20210;-65
2023/12/09 05:21:22;;;;;;;30.53;8.67;;;;;;;;;;5008788;28;20774;-64
2023/12/09 05:23:47;;;;;;;26.40;7.97;;;;;;;;;;5004031;28;20198;-64
2023/12/09 05:26:26;;;;;;;21.20;8.37;;;;;;;;;;5004383;28;20193;-63
2023/12/09 05:28:52;;;;;;;19.37;7.80;;;;;;;;;;5009019;28;20245;-63
2023/12/09 05:31:17;;;;;;;22.10;7.27;;;;;;;;;;5009087;28;20218;-64
2023/12/09 05:33:42;;;;;;;24.37;8.20;;;;;;;;;;5011327;28;20203;-64
2023/12/09 05:36:07;;;;;;;27.80;7.60;;;;;;;;;;5012785;28;20233;-65
2023/12/09 05:38:33;;;;;;;27.47;8.80;;;;;;;;;;5013732;28;20203;-65
2023/12/09 05:40:58;;;;;;;26.97;8.33;;;;;;;;;;5008150;28;20175;-65
2023/12/09 05:43:23;;;;;;;28.70;8.43;;;;;;;;;;5007020;28;20212;-65
2023/12/09 05:45:48;;;;;;;21.57;7.73;;;;;;;;;;5009016;28;20175;-65
2023/12/09 05:48:13;;;;;;;20.37;6.97;;;;;;;;;;5002701;28;20705;-65
2023/12/09 05:50:39;;;;;;;29.47;8.43;;;;;;;;;;5012059;28;20288;-64
2023/12/09 05:53:04;;;;;;;22.23;6.97;;;;;;;;;;5007231;28;20290;-65
2023/12/09 05:55:29;;;;;;;28.83;9.63;;;;;;;;;;5013079;28;20192;-64
2023/12/09 05:57:54;;;;;;;29.50;9.10;;;;;;;;;;5011348;28;20199;-65
2023/12/09 06:00:20;;;;;;;27.50;9.77;;;;;;;;;;5011707;28;20229;-64
2023/12/09 06:02:45;;;;;;;33.50;8.00;;;;;;;;;;5012566;28;20712;-66
2023/12/09 06:05:10;;;;;;;28.37;8.93;;;;;;;;;;5004105;28;20245;-66
2023/12/09 06:07:35;;;;;;;31.77;8.97;;;;;;;;;;5009801;28;20206;-66
2023/12/09 06:10:01;;;;;;;32.70;8.77;;;;;;;;;;5013090;28;20183;-66
2023/12/09 06:12:26;;;;;;;25.00;7.33;;;;;;;;;;5011888;28;20183;-66
2023/12/09 06:14:51;;;;;;;22.23;7.47;;;;;;;;;;5009679;28;20179;-66
2023/12/09 06:17:17;;;;;;;20.93;9.70;;;;;;;;;;5011282;28;20217;-65
2023/12/09 06:19:42;;;;;;;25.03;8.20;;;;;;;;;;5012087;28;20190;-65
2023/12/09 06:22:08;;;;;;;24.93;10.03;;;;;;;;;;5004986;28;20176;-65
2023/12/09 06:24:33;;;;;;;30.40;9.13;;;;;;;;;;5009229;28;20178;-65
2023/12/09 06:26:58;;;;;;;32.93;9.07;;;;;;;;;;5012782;28;20229;-65
2023/12/09 06:29:23;;;;;;;28.07;11.03;;;;;;;;;;5011309;28;20282;-64
2023/12/09 06:31:49;;;;;;;20.90;9.07;;;;;;;;;;5012686;28;20532;-65
2023/12/09 06:34:14;;;;;;;22.77;9.23;;;;;;;;;;5012829;28;20199;-64
2023/12/09 06:36:39;;;;;;;33.23;10.50;;;;;;;;;;5012040;28;20186;-65
2023/12/09 06:39:05;;;;;;;28.73;11.30;;;;;;;;;;5012507;28;20207;-64
2023/12/09 06:41:30;;;;;;;25.67;9.50;;;;;;;;;;5007485;28;20528;-65
2023/12/09 06:43:56;;;;;;;25.33;9.83;;;;;;;;;;5001519;28;20266;-65
2023/12/09 06:46:21;;;;;;;31.80;10.80;;;;;;;;;;5011446;28;20179;-65
2023/12/09 06:48:46;;;;;;;23.23;9.13;;;;;;;;;;5011886;28;20211;-64
2023/12/09 06:51:15;;;;;;;31.43;9.03;;;;;;;;;;5012325;28;20293;-65
2023/12/09 06:53:41;;;;;;;30.27;9.73;;;;;;;;;;5011555;28;20207;-65
2023/12/09 06:56:06;;;;;;;27.53;9.87;;;;;;;;;;5009127;28;20174;-65
2023/12/09 06:58:31;;;;;;;23.90;10.07;;;;;;;;;;5010197;28;20194;-65
2023/12/09 07:00:56;;;;;;;27.17;8.63;;;;;;;;;;5007339;28;20292;-64
2023/12/09 07:03:22;;;;;;;23.80;9.80;;;;;;;;;;5010467;28;20187;-64
2023/12/09 07:05:47;;;;;;;22.60;8.77;;;;;;;;;;5005241;28;20171;-64
2023/12/09 07:08:12;;;;;;;19.30;8.40;;;;;;;;;;5010012;28;20260;-65
2023/12/09 07:10:37;;;;;;;31.60;9.23;;;;;;;;;;5016428;28;20219;-64
2023/12/09 07:13:04;;;;;;;26.10;8.30;;;;;;;;;;5016918;28;20209;-64
2023/12/09 07:15:29;;;;;;;29.27;9.60;;;;;;;;;;5011159;28;20175;-64
2023/12/09 07:17:55;;;;;;;20.40;6.83;;;;;;;;;;5011533;28;20195;-65
2023/12/09 07:20:20;;;;;;;20.50;7.90;;;;;;;;;;5012497;28;20225;-64
2023/12/09 07:22:45;;;;;;;22.70;7.30;;;;;;;;;;5003967;28;20179;-65
2023/12/09 07:25:10;;;;;;;18.80;7.97;;;;;;;;;;5008207;28;20171;-64
2023/12/09 07:27:36;;;;;;;17.93;7.27;;;;;;;;;;5009296;28;20729;-64
2023/12/09 07:30:01;;;;;;;27.33;7.87;;;;;;;;;;5012047;28;20593;-64
2023/12/09 07:32:27;;;;;;;23.80;8.10;;;;;;;;;;5010334;28;20207;-64
2023/12/09 07:34:52;;;;;;;20.07;7.30;;;;;;;;;;5012257;28;20266;-65
2023/12/09 07:37:17;;;;;;;22.63;7.83;;;;;;;;;;5010366;28;20187;-65
2023/12/09 07:39:42;;;;;;;22.70;7.20;;;;;;;;;;5007212;28;20292;-65
2023/12/09 07:42:07;;;;;;;16.87;6.70;;;;;;;;;;5002780;28;20459;-66
2023/12/09 07:44:33;;;;;;;17.10;6.47;;;;;;;;;;5005571;28;20237;-65
2023/12/09 07:46:58;;;;;;;20.93;6.87;;;;;;;;;;5009675;28;20188;-65
2023/12/09 07:49:23;;;;;;;20.63;7.33;;;;;;;;;;5010966;28;20609;-65
2023/12/09 07:51:48;;;;;;;24.93;7.67;;;;;;;;;;5011147;28;20243;-65
2023/12/09 07:54:14;;;;;;;18.13;6.93;;;;;;;;;;5010581;28;20709;-66
2023/12/09 07:56:39;;;;;;;21.03;6.97;;;;;;;;;;5008584;28;20266;-65
2023/12/09 07:59:04;;;;;;;14.87;6.53;;;;;;;;;;5008530;28;20207;-65
2023/12/09 08:01:30;;;;;;;20.97;6.80;;;;;;;;;;5003456;28;20574;-64
2023/12/09 08:03:55;;;;;;;14.93;6.03;;;;;;;;;;5008893;28;20191;-65
2023/12/09 08:06:20;;;;;;;12.90;5.30;;;;;;;;;;5009740;28;20175;-65
2023/12/09 08:08:50;;;;;;;20.07;6.50;;;;;;;;;;5005794;28;20204;-64
2023/12/09 08:11:15;;;;;;;15.27;5.33;;;;;;;;;;5021378;22;20226;-65
2023/12/09 08:13:42;;;;;;;14.47;6.47;;;;;;;;;;5001340;28;20215;-64
2023/12/09 08:16:08;;;;;;;20.07;6.27;;;;;;;;;;5005430;28;20182;-65
2023/12/09 08:18:33;;;;;;;29.23;5.77;;;;;;;;;;5007503;28;20191;-66
2023/12/09 08:20:58;;;;;;;24.23;6.53;;;;;;;;;;4991110;28;20192;-66
2023/12/09 08:23:24;;;;;;;17.27;5.97;;;;;;;;;;4987406;28;20294;-67
2023/12/09 08:25:49;;;;;;;16.00;5.60;;;;;;;;;;4986539;28;20257;-66
2023/12/09 08:28:14;;;;;;;18.70;6.47;;;;;;;;;;4986906;28;20562;-67
2023/12/09 08:30:40;;;;;;;17.80;5.27;;;;;;;;;;4978980;28;20230;-66
2023/12/09 08:33:05;;;;;;;15.90;5.77;;;;;;;;;;4985698;28;20304;-66
2023/12/09 08:35:30;;;;;;;13.47;5.87;;;;;;;;;;4991106;28;20183;-67
2023/12/09 08:37:55;;;;;;;16.90;5.57;;;;;;;;;;4984031;28;20167;-66
2023/12/09 08:40:20;;;;;;;16.87;5.73;;;;;;;;;;4989577;28;20588;-66
2023/12/09 08:42:46;;;;;;;13.30;5.13;;;;;;;;;;4987684;28;20195;-67
2023/12/09 08:45:17;;;;;;;16.30;5.43;;;;;;;;;;4989109;28;21930;-66
2023/12/09 08:47:42;;;;;;;15.57;5.00;;;;;;;;;;4987796;28;20270;-66
2023/12/09 08:50:08;;;;;;;14.23;4.33;;;;;;;;;;4987858;28;20826;-68
2023/12/09 08:52:34;;;;;;;10.73;4.73;;;;;;;;;;4988759;28;20179;-66
2023/12/09 08:54:59;;;;;;;15.90;4.93;;;;;;;;;;4989188;28;20253;-67
2023/12/09 08:57:25;;;;;;;11.37;5.13;;;;;;;;;;4987308;28;20194;-67
2023/12/09 08:59:50;;;;;;;9.80;3.47;;;;;;;;;;4984477;28;20230;-67
2023/12/09 09:02:15;;;;;;;18.50;4.30;;;;;;;;;;4988557;28;20180;-67
2023/12/09 09:04:41;;;;;;;11.17;4.47;;;;;;;;;;4984753;28;21439;-67
2023/12/09 09:07:06;;;;;;;12.77;4.77;;;;;;;;;;4990960;28;20195;-67
2023/12/09 09:09:32;;;;;;;8.70;4.00;;;;;;;;;;4988953;28;20199;-66
2023/12/09 09:11:57;;;;;;;14.23;4.40;;;;;;;;;;4987701;28;20199;-67
2023/12/09 09:14:22;;;;;;;14.00;4.47;;;;;;;;;;4981664;28;20215;-67
2023/12/09 09:16:47;;;;;;;10.57;3.97;;;;;;;;;;4988549;28;20550;-66
2023/12/09 09:19:13;;;;;;;20.67;4.33;;;;;;;;;;4986954;28;20172;-67
2023/12/09 09:21:40;;;;;;;14.70;4.60;;;;;;;;;;4985866;28;20671;-64
2023/12/09 09:24:06;;;;;;;11.87;4.13;;;;;;;;;;4988952;28;20183;-67
2023/12/09 09:26:33;;;;;;;14.00;3.87;;;;;;;;;;4986889;28;20258;-67
2023/12/09 09:28:58;;;;;;;14.07;4.10;;;;;;;;;;4983439;28;20189;-68
2023/12/09 09:31:23;;;;;;;17.43;4.17;;;;;;;;;;4979455;28;22346;-68
2023/12/09 09:33:48;;;;;;;14.93;4.23;;;;;;;;;;4986466;28;20211;-67
2023/12/09 09:36:14;;;;;;;12.57;3.83;;;;;;;;;;4990280;28;20172;-67
2023/12/09 09:38:39;;;;;;;9.23;3.70;;;;;;;;;;4987994;28;20176;-67
2023/12/09 09:41:07;;;;;;;16.33;3.53;;;;;;;;;;4985991;28;20230;-68
2023/12/09 09:43:37;;;;;;;15.17;3.83;;;;;;;;;;4995269;28;20278;-66
2023/12/09 09:46:03;;;;;;;13.67;4.30;;;;;;;;;;4987003;28;20265;-67
2023/12/09 09:48:29;;;;;;;12.87;4.00;;;;;;;;;;4986574;28;20192;-67
2023/12/09 09:50:56;;;;;;;10.87;3.70;;;;;;;;;;4989819;28;20357;-67
2023/12/09 09:53:34;;;;;;;17.97;4.27;;;;;;;;;;4990386;28;20211;-68
2023/12/09 09:56:00;;;;;;;12.27;3.23;;;;;;;;;;4988041;28;20551;-66
2023/12/09 09:58:25;;;;;;;13.13;4.23;;;;;;;;;;4989052;28;20188;-66
2023/12/09 10:00:54;;;;;;;8.93;3.67;;;;;;;;;;4987699;28;20207;-66
2023/12/09 10:03:19;;;;;;;12.73;4.40;;;;;;;;;;4988404;28;20759;-66
2023/12/09 10:05:45;;;;;;;14.47;4.03;;;;;;;;;;4987542;28;20270;-67
2023/12/09 10:08:10;;;;;;;9.70;3.40;;;;;;;;;;4986115;28;20270;-67
2023/12/09 10:10:35;;;;;;;19.47;3.60;;;;;;;;;;4987462;28;20215;-66
2023/12/09 10:13:00;;;;;;;9.30;3.33;;;;;;;;;;4988767;28;20671;-67
2023/12/09 10:15:25;;;;;;;9.90;2.67;;;;;;;;;;4988939;28;20215;-67
2023/12/09 10:17:51;;;;;;;12.13;3.47;;;;;;;;;;4988746;28;20218;-67
2023/12/09 10:20:16;;;;;;;29.30;4.30;;;;;;;;;;4991400;28;20195;-67
2023/12/09 10:22:41;;;;;;;15.27;3.77;;;;;;;;;;5007288;28;20183;-65
2023/12/09 10:25:07;;;;;;;8.00;2.97;;;;;;;;;;4992853;28;20183;-66
2023/12/09 10:27:32;;;;;;;6.47;2.73;;;;;;;;;;4993043;28;20187;-67
2023/12/09 10:29:57;;;;;;;11.47;2.73;;;;;;;;;;4991534;28;20203;-68
2023/12/09 10:32:24;;;;;;;9.30;2.80;;;;;;;;;;4991847;28;20194;-66
2023/12/09 10:34:49;;;;;;;7.40;2.17;;;;;;;;;;4988364;28;20215;-65
2023/12/09 10:37:18;;;;;;;7.50;2.27;;;;;;;;;;4990697;28;20184;-67
2023/12/09 10:39:44;;;;;;;5.60;2.63;;;;;;;;;;4988527;28;20648;-66
2023/12/09 10:42:10;;;;;;;16.77;2.73;;;;;;;;;;4990372;28;20175;-67
2023/12/09 10:44:35;;;;;;;7.33;2.37;;;;;;;;;;4992269;28;20191;-67
2023/12/09 10:47:00;;;;;;;8.10;2.87;;;;;;;;;;4987908;28;20270;-66
2023/12/09 10:49:26;;;;;;;4.90;1.97;;;;;;;;;;4990507;28;20225;-66
2023/12/09 10:51:51;;;;;;;8.80;2.60;;;;;;;;;;4990655;28;20179;-67
2023/12/09 10:54:16;;;;;;;5.43;2.20;;;;;;;;;;4989014;28;20202;-67
2023/12/09 10:56:43;;;;;;;13.20;3.33;;;;;;;;;;4990922;28;20540;-66
2023/12/09 10:59:08;;;;;;;6.60;2.47;;;;;;;;;;4989976;28;20254;-67
2023/12/09 11:01:33;;;;;;;8.17;2.30;;;;;;;;;;4992015;28;20642;-66
2023/12/09 11:03:59;;;;;;;7.73;2.40;;;;;;;;;;4988838;28;20191;-66
2023/12/09 11:06:26;;;;;;;8.90;2.30;;;;;;;;;;4989411;28;20183;-66
2023/12/09 11:08:51;;;;;;;13.07;2.77;;;;;;;;;;4990055;28;20211;-65
2023/12/09 11:11:18;;;;;;;9.83;2.77;;;;;;;;;;4991110;28;20285;-67
2023/12/09 11:13:46;;;;;;;8.87;2.23;;;;;;;;;;4988922;28;20679;-67
2023/12/09 11:16:12;;;;;;;10.03;2.33;;;;;;;;;;4990914;28;20532;-66
2023/12/09 11:18:48;;;;;;;3.63;1.90;;;;;;;;;;4989217;28;20179;-66
2023/12/09 11:21:14;;;;;;;7.57;2.03;;;;;;;;;;4990404;28;20674;-65
2023/12/09 11:23:42;;;;;;;3.97;1.67;;;;;;;;;;4989264;28;20179;-66
2023/12/09 11:26:12;;;;;;;9.40;2.10;;;;;;;;;;4989918;28;20191;-66
2023/12/09 11:28:37;;;;;;;7.33;2.23;;;;;;;;;;4991516;28;20184;-68
2023/12/09 11:31:02;;;;;;;10.93;2.60;;;;;;;;;;4989031;28;20219;-69
2023/12/09 11:33:28;;;;;;;5.07;2.00;;;;;;;;;;4990173;28;20207;-65
2023/12/09 11:35:55;;;;;;;10.13;2.83;;;;;;;;;;4989225;28;20261;-66
2023/12/09 11:38:20;;;;;;;4.90;1.93;;;;;;;;;;4990202;28;20190;-67
2023/12/09 11:40:46;;;;;;;7.30;1.53;;;;;;;;;;4989196;28;20199;-67
2023/12/09 11:43:11;;;;;;;6.60;1.50;;;;;;;;;;4988422;28;20183;-67
2023/12/09 11:45:37;;;;;;;6.00;2.40;;;;;;;;;;4989787;28;20188;-67
2023/12/09 11:48:03;;;;;;;5.70;1.20;;;;;;;;;;4990911;28;20194;-67
2023/12/09 11:50:29;;;;;;;10.53;1.60;;;;;;;;;;4990502;28;20271;-67
2023/12/09 11:52:54;;;;;;;10.03;1.80;;;;;;;;;;4990534;28;20575;-66
2023/12/09 11:55:19;;;;;;;7.30;2.00;;;;;;;;;;4990778;28;20176;-67
2023/12/09 11:57:45;;;;;;;6.53;1.80;;;;;;;;;;4990890;28;20542;-67
2023/12/09 12:00:13;;;;;;;5.10;1.90;;;;;;;;;;4988610;28;20679;-66
2023/12/09 12:02:39;;;;;;;3.93;1.40;;;;;;;;;;4989810;28;20192;-67
2023/12/09 12:05:06;;;;;;;4.23;1.87;;;;;;;;;;4989824;28;20248;-67
2023/12/09 12:07:31;;;;;;;5.67;1.77;;;;;;;;;;4985705;28;20211;-68
2023/12/09 12:09:56;;;;;;;4.00;1.53;;;;;;;;;;4988811;28;20250;-68
2023/12/09 12:12:21;;;;;;;5.27;1.87;;;;;;;;;;4992759;28;20254;-67
2023/12/09 12:14:46;;;;;;;4.87;1.70;;;;;;;;;;4990740;28;20206;-68
2023/12/09 12:17:12;;;;;;;9.00;2.30;;;;;;;;;;4988054;28;20167;-67
2023/12/09 12:19:39;;;;;;;9.60;1.70;;;;;;;;;;4989294;28;20233;-69
2023/12/09 12:22:05;;;;;;;3.37;1.37;;;;;;;;;;4990055;28;20172;-67
2023/12/09 12:24:39;;;;;;;4.70;1.60;;;;;;;;;;4986982;28;20694;-67
2023/12/09 12:27:04;;;;;;;3.97;1.67;;;;;;;;;;4988536;28;20191;-67
2023/12/09 12:29:30;;;;;;;4.70;1.53;;;;;;;;;;4988000;28;20387;-67
2023/12/09 12:31:55;;;;;;;2.90;1.17;;;;;;;;;;4986235;28;20187;-67
2023/12/09 12:34:20;;;;;;;1.77;0.93;;;;;;;;;;4991964;28;20697;-66
2023/12/09 12:36:49;;;;;;;3.07;1.10;;;;;;;;;;4987860;28;20561;-66
2023/12/09 12:39:14;;;;;;;5.03;1.60;;;;;;;;;;4987399;28;20259;-65
2023/12/09 12:41:40;;;;;;;4.20;1.20;;;;;;;;;;4989039;28;20295;-67
2023/12/09 12:44:05;;;;;;;3.73;1.47;;;;;;;;;;4988140;28;20203;-67
2023/12/09 12:46:31;;;;;;;5.37;1.17;;;;;;;;;;4988180;28;20184;-67
2023/12/09 12:48:56;;;;;;;7.77;1.27;;;;;;;;;;4990332;28;20179;-67
2023/12/09 12:51:22;;;;;;;4.83;1.20;;;;;;;;;;4987492;28;20310;-67
2023/12/09 12:53:47;;;;;;;6.70;1.30;;;;;;;;;;4984239;28;20195;-67
2023/12/09 12:56:12;;;;;;;3.23;1.10;;;;;;;;;;4989395;28;20663;-67
2023/12/09 12:58:38;;;;;;;4.20;1.03;;;;;;;;;;4988933;28;20167;-67
2023/12/09 13:01:03;;;;;;;2.60;1.10;;;;;;;;;;4988735;28;20206;-67
2023/12/09 13:03:28;;;;;;;5.83;1.13;;;;;;;;;;4990193;28;20647;-67
2023/12/09 13:05:54;;;;;;;1.47;0.80;;;;;;;;;;4988887;28;20622;-69
2023/12/09 13:08:19;;;;;;;3.17;1.00;;;;;;;;;;4986278;28;20243;-68
2023/12/09 13:10:44;;;;;;;4.17;1.20;;;;;;;;;;4987494;28;20219;-68
2023/12/09 13:13:10;;;;;;;5.00;0.97;;;;;;;;;;4986162;28;20238;-68
2023/12/09 13:15:35;;;;;;;7.03;1.00;;;;;;;;;;4986802;28;20214;-68
2023/12/09 13:18:00;;;;;;;4.20;0.83;;;;;;;;;;4986239;28;20643;-67
2023/12/09 13:20:26;;;;;;;1.53;1.10;;;;;;;;;;4989767;28;20194;-68
2023/12/09 13:22:51;;;;;;;4.47;0.80;;;;;;;;;;4989269;28;20195;-68
2023/12/09 13:25:17;;;;;;;0.77;0.70;;;;;;;;;;4988901;28;20698;-67
2023/12/09 13:27:43;;;;;;;0.87;0.50;;;;;;;;;;5002069;28;20179;-68
2023/12/09 13:30:08;;;;;;;2.03;0.80;;;;;;;;;;4984491;28;20199;-68
2023/12/09 13:32:36;;;;;;;4.50;0.80;;;;;;;;;;4987205;28;20191;-69
2023/12/09 13:35:03;;;;;;;2.90;0.70;;;;;;;;;;4987130;28;20556;-69
2023/12/09 13:37:28;;;;;;;4.00;0.83;;;;;;;;;;4984964;28;20180;-69
2023/12/09 13:39:53;;;;;;;1.03;0.57;;;;;;;;;;4989216;28;20583;-68
2023/12/09 13:42:18;;;;;;;1.10;0.83;;;;;;;;;;4991112;28;20195;-69
2023/12/09 13:44:44;;;;;;;2.00;0.70;;;;;;;;;;4989498;28;20184;-69
2023/12/09 13:47:09;;;;;;;1.80;0.77;;;;;;;;;;4989088;28;20651;-69
2023/12/09 13:49:34;;;;;;;3.23;0.97;;;;;;;;;;4987020;28;20647;-68
2023/12/09 13:51:59;;;;;;;2.03;0.60;;;;;;;;;;4988303;28;20207;-69
2023/12/09 13:54:25;;;;;;;4.70;1.23;;;;;;;;;;4993157;28;20211;-69
2023/12/09 13:56:51;;;;;;;1.03;0.70;;;;;;;;;;4993131;28;20184;-68
2023/12/09 13:59:17;;;;;;;3.17;1.17;;;;;;;;;;4993071;28;20176;-69
2023/12/09 14:01:42;;;;;;;1.60;0.87;;;;;;;;;;4994542;28;20687;-69
2023/12/09 14:04:08;;;;;;;1.00;0.77;;;;;;;;;;4995020;28;20384;-69
2023/12/09 14:06:34;;;;;;;2.80;0.80;;;;;;;;;;4990210;28;20184;-69
2023/12/09 14:08:59;;;;;;;1.93;0.77;;;;;;;;;;4994276;28;21665;-69
2023/12/09 14:11:27;;;;;;;1.13;0.80;;;;;;;;;;4993186;28;20215;-68
2023/12/09 14:13:52;;;;;;;1.67;0.53;;;;;;;;;;4994087;28;20735;-69
2023/12/09 14:16:18;;;;;;;1.90;0.80;;;;;;;;;;4990890;28;20314;-69
2023/12/09 14:18:43;;;;;;;4.10;0.90;;;;;;;;;;4993595;28;20230;-68
2023/12/09 14:21:08;;;;;;;1.13;0.77;;;;;;;;;;4992069;28;20277;-69
2023/12/09 14:23:33;;;;;;;1.73;0.87;;;;;;;;;;4991492;28;20623;-69
2023/12/09 14:25:59;;;;;;;1.27;0.80;;;;;;;;;;4991173;28;20262;-69